Time;durP1;ratioP1;P1;durP2;ratioP2;P2;SDS_P1;SDS_P2;PMS_P1;PMS_P2;Temp;Humidity;BMP_temperature;BMP_pressure;BME280_temperature;BME280_humidity;BME280_pressure;Samples;Min_cycle;Max_cycle;Signal;HPM_P1;HPM_P2
2021/12/19 00:00:09;;;;;;;1.65;0.70;;;31.00;72.60;;;;;;5125946;27;20370;-88
2021/12/19 00:10:47;;;;;;;0.85;0.63;;;30.90;70.90;;;;;;5151314;27;20406;-86
2021/12/19 00:13:14;;;;;;;1.67;0.60;;;30.80;69.70;;;;;;5145562;27;20868;-92
2021/12/19 00:15:41;;;;;;;2.30;0.60;;;30.90;68.50;;;;;;5130338;27;20418;-89
2021/12/19 00:18:08;;;;;;;1.50;0.60;;;30.90;68.90;;;;;;5150039;27;20418;-88
2021/12/19 00:20:35;;;;;;;0.88;0.60;;;30.90;67.90;;;;;;5145944;27;20377;-90
2021/12/19 00:23:02;;;;;;;2.25;0.60;;;30.80;68.80;;;;;;5130731;27;20369;-90
2021/12/19 00:25:29;;;;;;;1.23;0.70;;;30.80;68.80;;;;;;5112715;27;20377;-89
2021/12/19 00:27:56;;;;;;;2.38;0.80;;;30.80;70.00;;;;;;5111966;27;20461;-89
2021/12/19 00:30:26;;;;;;;2.33;0.70;;;31.10;69.80;;;;;;5111896;27;20388;-89
2021/12/19 00:32:53;;;;;;;1.35;0.60;;;31.40;69.90;;;;;;5129521;27;20396;-85
2021/12/19 00:35:22;;;;;;;1.08;0.50;;;31.60;66.50;;;;;;5129489;27;20490;-87
2021/12/19 00:37:50;;;;;;;1.52;0.70;;;31.60;66.40;;;;;;5129860;27;20409;-87
2021/12/19 00:40:18;;;;;;;4.63;0.73;;;31.80;67.70;;;;;;5129704;27;20365;-89
2021/12/19 00:42:51;;;;;;;1.00;0.50;;;31.90;67.30;;;;;;5129867;27;20392;-86
2021/12/19 00:45:30;;;;;;;1.33;0.63;;;31.90;66.80;;;;;;5129723;27;20461;-88
2021/12/19 00:47:59;;;;;;;1.02;0.70;;;32.00;69.20;;;;;;5130576;27;20377;-87
2021/12/19 00:50:27;;;;;;;2.38;0.80;;;32.20;65.10;;;;;;5129934;27;20393;-88
2021/12/19 00:52:54;;;;;;;1.58;0.65;;;32.60;65.60;;;;;;5130189;27;20914;-87
2021/12/19 00:55:24;;;;;;;2.08;0.70;;;32.90;64.60;;;;;;5130710;27;20365;-88
2021/12/19 00:57:52;;;;;;;1.30;0.68;;;33.10;61.90;;;;;;5129823;27;20456;-88
2021/12/19 01:00:22;;;;;;;0.68;0.60;;;33.00;60.30;;;;;;5130104;27;20839;-89
2021/12/19 01:02:54;;;;;;;1.20;0.70;;;32.70;61.80;;;;;;5129952;27;20377;-87
2021/12/19 01:05:21;;;;;;;1.90;0.60;;;32.60;61.60;;;;;;5129695;27;20430;-87
2021/12/19 01:07:48;;;;;;;2.15;0.70;;;32.70;62.10;;;;;;5130200;27;20856;-87
2021/12/19 01:10:16;;;;;;;1.30;0.80;;;32.80;61.90;;;;;;5130132;27;20394;-87
2021/12/19 01:12:43;;;;;;;1.00;0.60;;;32.90;61.70;;;;;;5130142;27;20416;-88
2021/12/19 01:15:13;;;;;;;1.80;0.63;;;32.90;58.40;;;;;;5130051;27;20362;-86
2021/12/19 01:17:41;;;;;;;1.25;0.70;;;33.10;58.50;;;;;;5125136;27;20373;-87
2021/12/19 01:20:14;;;;;;;1.17;0.60;;;33.50;57.20;;;;;;5128122;27;20377;-87
2021/12/19 01:22:41;;;;;;;2.00;0.70;;;33.60;55.90;;;;;;5148398;27;20819;-87
2021/12/19 01:25:09;;;;;;;2.08;0.60;;;33.50;55.50;;;;;;5128414;27;20388;-87
2021/12/19 01:27:36;;;;;;;1.50;0.70;;;33.70;57.20;;;;;;5128504;27;20369;-87
2021/12/19 01:30:05;;;;;;;2.63;0.80;;;33.80;55.00;;;;;;5128834;27;20424;-87
2021/12/19 01:32:32;;;;;;;1.27;0.68;;;33.90;52.90;;;;;;5108642;27;20477;-86
2021/12/19 01:34:59;;;;;;;1.60;0.60;;;33.90;53.20;;;;;;5128335;27;21137;-86
2021/12/19 01:37:26;;;;;;;2.05;0.73;;;34.10;53.00;;;;;;5128296;27;20385;-87
2021/12/19 01:39:54;;;;;;;1.48;0.57;;;34.30;53.00;;;;;;5128111;27;20851;-89
2021/12/19 01:42:21;;;;;;;1.40;0.70;;;34.20;51.10;;;;;;5128194;27;20454;-85
2021/12/19 01:44:48;;;;;;;1.52;0.70;;;34.30;51.20;;;;;;5128485;27;20460;-88
2021/12/19 01:47:16;;;;;;;1.45;0.60;;;34.60;51.30;;;;;;5127992;27;20450;-87
2021/12/19 01:49:43;;;;;;;1.60;0.70;;;34.50;50.00;;;;;;5129363;27;20461;-89
2021/12/19 01:52:11;;;;;;;1.15;0.70;;;34.60;50.80;;;;;;5128965;27;20455;-90
2021/12/19 01:54:38;;;;;;;0.83;0.60;;;34.60;49.60;;;;;;5110631;27;20893;-89
2021/12/19 01:57:05;;;;;;;1.30;0.57;;;34.90;48.80;;;;;;5129305;27;20365;-89
2021/12/19 01:59:32;;;;;;;1.05;0.60;;;35.00;48.60;;;;;;5129187;27;20385;-88
2021/12/19 02:01:59;;;;;;;1.17;0.55;;;34.90;48.40;;;;;;5110088;27;20909;-88
2021/12/19 02:04:30;;;;;;;2.20;0.70;;;34.80;50.80;;;;;;5128656;27;20384;-88
2021/12/19 02:07:00;;;;;;;1.98;0.57;;;34.80;48.20;;;;;;5109445;27;20429;-88
2021/12/19 02:09:27;;;;;;;0.90;0.50;;;34.70;48.10;;;;;;5128514;27;20372;-88
2021/12/19 02:11:54;;;;;;;1.42;0.68;;;34.70;45.40;;;;;;5120950;27;20439;-89
2021/12/19 02:14:21;;;;;;;2.30;0.80;;;34.80;47.20;;;;;;5145916;27;20388;-88
2021/12/19 02:16:49;;;;;;;1.70;0.68;;;35.20;50.40;;;;;;5108357;27;20392;-88
2021/12/19 02:19:16;;;;;;;2.45;0.70;;;35.70;47.30;;;;;;5119841;27;20828;-87
2021/12/19 02:21:43;;;;;;;1.00;0.50;;;35.80;47.00;;;;;;5124207;27;20748;-89
2021/12/19 02:24:12;;;;;;;2.97;0.68;;;35.50;46.10;;;;;;5129963;27;20370;-86
2021/12/19 02:26:40;;;;;;;1.10;0.60;;;35.40;45.90;;;;;;5110455;27;20383;-89
2021/12/19 02:29:09;;;;;;;2.10;0.57;;;35.30;46.80;;;;;;5130977;27;20857;-90
2021/12/19 02:31:37;;;;;;;1.08;0.50;;;35.50;46.10;;;;;;5109920;27;20385;-90
2021/12/19 02:34:10;;;;;;;1.42;0.60;;;35.40;46.00;;;;;;5109744;27;20420;-90
2021/12/19 02:37:06;;;;;;;3.00;0.60;;;35.70;46.60;;;;;;5128286;27;20460;-94
2021/12/19 02:50:26;;;;;;;2.78;0.73;;;35.10;46.30;;;;;;5131122;27;20433;-88
2021/12/19 02:52:54;;;;;;;1.90;0.68;;;35.50;45.00;;;;;;5127969;27;20782;-88
2021/12/19 02:55:21;;;;;;;2.67;0.70;;;35.50;45.80;;;;;;5130697;27;20756;-91
2021/12/19 02:57:49;;;;;;;1.27;0.67;;;36.00;44.80;;;;;;5110183;28;20876;-86
2021/12/19 03:00:23;;;;;;;3.03;0.80;;;36.00;45.00;;;;;;5128132;27;20388;-85
2021/12/19 03:02:50;;;;;;;0.98;0.70;;;35.80;44.80;;;;;;5127170;27;20392;-87
2021/12/19 03:05:18;;;;;;;1.17;0.60;;;35.90;45.50;;;;;;5111589;28;20842;-90
2021/12/19 03:07:45;;;;;;;2.00;0.70;;;35.60;44.40;;;;;;5107981;28;21017;-86
2021/12/19 03:13:26;;;;;;;2.67;0.93;;;36.10;45.80;;;;;;5130925;27;20805;-89
2021/12/19 03:18:40;;;;;;;1.15;0.70;;;35.00;45.90;;;;;;5129972;28;20387;-87
2021/12/19 03:21:12;;;;;;;1.83;0.75;;;34.60;47.60;;;;;;5134959;27;20383;-89
2021/12/19 03:23:39;;;;;;;2.75;0.70;;;34.10;47.70;;;;;;5130537;27;20400;-87
2021/12/19 03:26:07;;;;;;;1.60;0.70;;;34.00;48.80;;;;;;5132430;27;20377;-88
2021/12/19 03:28:34;;;;;;;1.30;0.50;;;34.10;48.00;;;;;;5132162;27;21124;-88
2021/12/19 03:31:02;;;;;;;1.48;0.57;;;34.10;46.80;;;;;;5130496;27;20469;-84
2021/12/19 03:33:30;;;;;;;0.60;0.53;;;34.30;47.40;;;;;;5128167;27;20416;-88
2021/12/19 03:35:57;;;;;;;1.43;0.60;;;34.90;47.30;;;;;;5130422;27;20384;-88
2021/12/19 03:38:25;;;;;;;1.38;0.50;;;34.60;46.90;;;;;;5132801;27;20385;-86
2021/12/19 03:41:07;;;;;;;2.63;0.60;;;34.80;46.70;;;;;;5116185;27;20729;-90
2021/12/19 03:43:34;;;;;;;1.73;0.70;;;34.60;47.40;;;;;;5133710;27;20375;-87
2021/12/19 03:46:01;;;;;;;0.88;0.60;;;34.30;47.60;;;;;;5132090;27;20381;-87
2021/12/19 03:48:29;;;;;;;3.03;0.60;;;34.40;47.40;;;;;;5132624;27;20381;-85
2021/12/19 03:50:56;;;;;;;1.05;0.60;;;34.40;47.70;;;;;;5133362;27;21247;-86
2021/12/19 03:53:23;;;;;;;1.77;0.80;;;34.40;47.60;;;;;;5132438;27;20401;-86
2021/12/19 03:55:51;;;;;;;0.95;0.50;;;34.50;47.80;;;;;;5113824;27;20799;-82
2021/12/19 03:58:20;;;;;;;0.82;0.50;;;33.80;47.70;;;;;;5133925;27;20369;-84
2021/12/19 04:00:48;;;;;;;1.60;0.60;;;33.50;48.20;;;;;;5132078;27;20451;-83
2021/12/19 04:03:20;;;;;;;1.17;0.50;;;33.10;48.90;;;;;;5131388;27;20480;-86
2021/12/19 04:05:52;;;;;;;1.67;0.52;;;32.90;49.40;;;;;;5131341;27;20369;-84
2021/12/19 04:08:20;;;;;;;2.13;0.60;;;32.60;50.00;;;;;;5131523;27;20473;-83
2021/12/19 04:10:49;;;;;;;1.70;0.60;;;32.50;49.60;;;;;;5131517;27;20844;-83
2021/12/19 04:13:17;;;;;;;3.20;0.50;;;32.50;49.00;;;;;;5131221;27;20419;-83
2021/12/19 04:15:45;;;;;;;1.17;0.47;;;32.40;48.80;;;;;;5130816;27;20398;-84
2021/12/19 04:18:12;;;;;;;3.20;0.60;;;32.30;49.70;;;;;;5131951;27;20377;-87
2021/12/19 04:20:40;;;;;;;0.70;0.40;;;32.20;49.20;;;;;;5130609;27;20380;-85
2021/12/19 04:23:07;;;;;;;1.70;0.47;;;32.40;49.50;;;;;;5130595;27;20810;-89
2021/12/19 04:25:34;;;;;;;2.57;0.40;;;32.60;49.10;;;;;;5130176;27;20920;-85
2021/12/19 04:28:01;;;;;;;16.47;1.87;;;32.70;49.00;;;;;;5130850;27;20465;-88
2021/12/19 04:30:28;;;;;;;23.40;2.70;;;32.60;48.60;;;;;;5130340;27;20912;-87
2021/12/19 04:33:09;;;;;;;5.53;1.20;;;32.60;49.10;;;;;;5130097;27;20400;-88
2021/12/19 04:35:39;;;;;;;0.93;0.50;;;33.00;48.10;;;;;;5130497;27;20388;-88
2021/12/19 04:41:15;;;;;;;1.80;0.50;;;32.90;48.20;;;;;;5130608;27;20392;-86
2021/12/19 04:57:24;;;;;;;0.98;0.60;;;31.50;49.80;;;;;;5130445;27;20358;-85
2021/12/19 04:59:55;;;;;;;1.90;0.70;;;31.30;50.70;;;;;;5109598;28;20411;-86
2021/12/19 05:15:49;;;;;;;1.90;0.80;;;30.60;51.10;;;;;;5129661;27;20356;-79
2021/12/19 05:18:17;;;;;;;1.83;0.60;;;30.50;51.80;;;;;;5128674;27;20389;-81
2021/12/19 05:21:11;;;;;;;1.20;0.60;;;30.40;52.10;;;;;;5128995;27;20369;-79
2021/12/19 05:25:59;;;;;;;1.70;0.80;;;30.30;52.50;;;;;;5129377;27;20364;-83
2021/12/19 05:28:27;;;;;;;4.25;2.30;;;30.20;52.80;;;;;;5128892;27;20446;-82
2021/12/19 05:30:54;;;;;;;3.17;1.10;;;30.20;52.80;;;;;;5128963;27;20418;-81
2021/12/19 05:33:21;;;;;;;2.47;1.30;;;30.20;53.10;;;;;;5128300;27;20416;-82
2021/12/19 05:46:40;;;;;;;1.88;0.75;;;29.80;52.20;;;;;;5128647;27;20405;-83
2021/12/19 05:49:08;;;;;;;2.75;0.90;;;29.80;53.20;;;;;;5129061;27;20385;-80
2021/12/19 05:51:36;;;;;;;2.58;0.60;;;29.80;52.40;;;;;;5128469;27;20437;-85
2021/12/19 05:54:04;;;;;;;2.22;0.70;;;29.80;49.70;;;;;;5128457;27;20393;-81
2021/12/19 05:56:31;;;;;;;2.03;0.80;;;29.80;49.00;;;;;;5128711;27;20759;-84
2021/12/19 05:59:01;;;;;;;2.20;0.60;;;29.80;48.00;;;;;;5131312;27;20381;-83
2021/12/19 06:01:28;;;;;;;1.50;0.70;;;29.80;48.00;;;;;;5128097;27;20429;-81
2021/12/19 06:03:55;;;;;;;1.15;0.60;;;29.70;47.90;;;;;;5128259;27;20456;-80
2021/12/19 06:06:26;;;;;;;1.20;0.57;;;29.60;47.90;;;;;;5128554;27;20523;-83
2021/12/19 06:08:54;;;;;;;1.05;0.50;;;29.50;48.10;;;;;;5128588;27;20466;-78
2021/12/19 06:11:21;;;;;;;1.90;0.60;;;29.40;49.10;;;;;;5128334;27;20879;-84
2021/12/19 06:13:48;;;;;;;0.73;0.50;;;29.40;49.40;;;;;;5128342;27;20436;-78
2021/12/19 06:16:15;;;;;;;1.40;0.60;;;29.20;50.00;;;;;;5129397;27;20365;-78
2021/12/19 06:18:42;;;;;;;0.90;0.50;;;29.20;51.00;;;;;;5129467;27;20385;-83
2021/12/19 06:21:10;;;;;;;1.42;0.57;;;29.10;51.00;;;;;;5128045;27;20767;-82
2021/12/19 06:23:39;;;;;;;0.63;0.60;;;29.00;51.80;;;;;;5127396;27;20384;-81
2021/12/19 06:26:10;;;;;;;0.98;0.50;;;28.90;52.60;;;;;;5129567;27;20387;-81
2021/12/19 06:28:37;;;;;;;1.23;0.50;;;28.80;53.40;;;;;;5128109;27;20391;-82
2021/12/19 06:31:05;;;;;;;1.65;0.50;;;28.70;53.40;;;;;;5127734;27;20452;-80
2021/12/19 06:33:32;;;;;;;1.80;0.77;;;28.70;54.10;;;;;;5127462;27;20418;-81
2021/12/19 06:35:59;;;;;;;1.10;0.57;;;28.60;54.70;;;;;;5127675;27;20425;-81
2021/12/19 06:38:26;;;;;;;0.70;0.70;;;28.50;54.70;;;;;;5127158;27;20420;-83
2021/12/19 06:40:53;;;;;;;0.93;0.70;;;28.40;55.40;;;;;;5128212;27;20405;-81
2021/12/19 06:43:20;;;;;;;0.70;0.60;;;28.40;56.30;;;;;;5092579;27;20407;-82
2021/12/19 06:45:48;;;;;;;2.50;1.00;;;28.30;55.70;;;;;;5128066;27;20394;-86
2021/12/19 06:48:15;;;;;;;2.60;0.98;;;28.20;56.70;;;;;;5127934;27;20371;-82
2021/12/19 06:50:42;;;;;;;2.80;1.60;;;28.10;56.90;;;;;;5127695;27;20388;-82
2021/12/19 06:53:09;;;;;;;1.75;1.00;;;28.10;57.00;;;;;;5127770;27;20397;-84
2021/12/19 06:55:37;;;;;;;2.25;1.30;;;28.00;57.30;;;;;;5127930;27;20369;-83
2021/12/19 06:58:04;;;;;;;2.50;1.20;;;28.00;57.60;;;;;;5127650;27;20731;-85
2021/12/19 07:00:31;;;;;;;2.15;1.30;;;28.00;57.70;;;;;;5127847;27;20373;-85
2021/12/19 07:02:58;;;;;;;1.70;0.80;;;28.00;57.90;;;;;;5127446;27;20936;-84
2021/12/19 07:05:25;;;;;;;2.05;0.82;;;27.90;58.40;;;;;;5109600;28;20748;-82
2021/12/19 07:07:52;;;;;;;2.47;1.15;;;27.90;59.00;;;;;;5127574;28;20465;-83
2021/12/19 07:10:19;;;;;;;1.75;0.70;;;27.90;58.40;;;;;;5126837;27;20928;-84
2021/12/19 07:12:46;;;;;;;2.47;0.90;;;28.00;58.60;;;;;;5111038;27;20861;-83
2021/12/19 07:15:17;;;;;;;2.67;0.80;;;27.90;58.80;;;;;;5132163;27;20380;-81
2021/12/19 07:17:44;;;;;;;2.42;0.90;;;27.90;59.40;;;;;;5131767;27;20380;-82
2021/12/19 07:20:12;;;;;;;1.15;0.90;;;27.90;59.20;;;;;;5131717;27;20785;-83
2021/12/19 07:22:39;;;;;;;2.37;0.80;;;28.00;60.60;;;;;;5131705;27;20408;-83
2021/12/19 07:25:06;;;;;;;1.83;0.70;;;27.30;65.10;;;;;;5131263;27;20379;-85
2021/12/19 07:27:33;;;;;;;2.78;0.65;;;26.00;72.30;;;;;;5131298;27;20396;-79
2021/12/19 07:30:00;;;;;;;2.17;0.77;;;24.90;79.30;;;;;;5131510;27;20368;-82
2021/12/19 07:32:27;;;;;;;3.47;0.80;;;24.60;91.70;;;;;;5131477;27;20391;-86
2021/12/19 07:34:54;;;;;;;3.30;0.70;;;24.40;93.10;;;;;;5112939;27;22295;-83
2021/12/19 07:37:21;;;;;;;1.37;0.70;;;24.30;95.30;;;;;;5131239;27;20392;-79
2021/12/19 07:39:56;;;;;;;2.60;0.60;;;24.50;96.40;;;;;;5131109;27;20381;-80
2021/12/19 07:42:23;;;;;;;0.73;0.50;;;24.50;92.30;;;;;;5130739;27;20381;-80
2021/12/19 07:44:50;;;;;;;1.85;0.63;;;24.90;88.90;;;;;;5131076;27;20447;-82
2021/12/19 07:47:17;;;;;;;1.27;0.52;;;25.20;85.20;;;;;;5131192;27;20735;-82
2021/12/19 07:49:44;;;;;;;0.98;0.57;;;25.30;83.80;;;;;;5131099;27;20373;-81
2021/12/19 07:52:11;;;;;;;2.97;0.90;;;25.50;79.90;;;;;;5130608;27;20416;-84
2021/12/19 07:54:38;;;;;;;0.80;0.60;;;25.50;79.50;;;;;;5130725;27;20387;-81
2021/12/19 07:57:05;;;;;;;1.33;0.65;;;25.60;75.60;;;;;;5130361;27;20389;-82
2021/12/19 07:59:32;;;;;;;2.17;0.60;;;25.70;75.60;;;;;;5132174;27;20420;-81
2021/12/19 08:02:00;;;;;;;1.25;0.57;;;25.70;74.20;;;;;;5132006;27;20415;-83
2021/12/19 08:04:26;;;;;;;2.07;0.70;;;25.70;73.10;;;;;;5129983;27;20464;-83
2021/12/19 08:06:53;;;;;;;1.20;0.70;;;25.70;75.80;;;;;;5130957;27;20430;-81
2021/12/19 08:09:35;;;;;;;1.83;0.90;;;25.70;80.50;;;;;;5130326;27;20744;-81
2021/12/19 08:12:05;;;;;;;2.50;0.90;;;25.70;83.40;;;;;;5121030;27;20399;-83
2021/12/19 08:14:32;;;;;;;2.90;0.80;;;25.70;84.70;;;;;;5125884;27;20389;-81
2021/12/19 08:16:59;;;;;;;1.45;0.90;;;25.90;85.90;;;;;;5125958;27;20434;-83
2021/12/19 08:19:26;;;;;;;1.00;0.90;;;26.10;87.60;;;;;;5130239;27;20868;-84
2021/12/19 08:21:53;;;;;;;1.00;0.80;;;26.00;87.10;;;;;;5112225;27;20456;-84
2021/12/19 08:24:22;;;;;;;1.48;0.73;;;26.10;84.20;;;;;;5109996;27;21040;-82
2021/12/19 08:26:49;;;;;;;1.90;0.98;;;26.20;81.60;;;;;;5130094;27;20455;-83
2021/12/19 08:29:16;;;;;;;4.10;1.23;;;26.20;79.50;;;;;;5110503;27;20395;-82
2021/12/19 08:31:43;;;;;;;3.20;0.90;;;26.10;78.60;;;;;;5129947;27;20401;-84
2021/12/19 08:34:10;;;;;;;2.15;0.88;;;26.00;77.60;;;;;;5129920;27;20472;-84
2021/12/19 08:36:37;;;;;;;1.40;0.70;;;25.80;75.80;;;;;;5129727;27;20396;-83
2021/12/19 08:39:05;;;;;;;1.98;0.73;;;25.80;74.80;;;;;;5129371;27;20448;-83
2021/12/19 08:41:32;;;;;;;1.17;0.80;;;25.70;73.70;;;;;;5129840;27;20377;-83
2021/12/19 08:43:59;;;;;;;1.77;0.52;;;25.60;72.60;;;;;;5126997;27;20384;-82
2021/12/19 08:46:26;;;;;;;0.90;0.70;;;25.50;72.30;;;;;;5110953;27;20389;-83
2021/12/19 08:48:53;;;;;;;0.65;0.50;;;25.30;71.80;;;;;;5129453;27;20880;-83
2021/12/19 08:51:20;;;;;;;1.90;0.80;;;25.10;72.20;;;;;;5129528;27;20434;-84
2021/12/19 08:53:47;;;;;;;3.95;0.80;;;25.00;73.70;;;;;;5129792;27;20450;-82
2021/12/19 08:56:14;;;;;;;2.70;0.77;;;24.90;73.40;;;;;;5129721;27;20384;-84
2021/12/19 08:58:41;;;;;;;2.23;0.70;;;24.80;72.40;;;;;;5129108;27;20384;-84
2021/12/19 09:01:08;;;;;;;3.03;0.70;;;24.70;73.60;;;;;;5129331;27;20407;-83
2021/12/19 09:03:35;;;;;;;3.13;0.80;;;24.70;74.20;;;;;;5128904;27;20460;-82
2021/12/19 09:06:04;;;;;;;2.40;0.80;;;24.60;74.40;;;;;;5128568;27;20381;-81
2021/12/19 09:08:31;;;;;;;1.20;0.60;;;24.40;75.00;;;;;;5128774;27;20868;-83
2021/12/19 09:10:58;;;;;;;0.68;0.60;;;24.20;75.40;;;;;;5129033;27;20380;-82
2021/12/19 09:13:26;;;;;;;1.60;0.60;;;24.20;76.30;;;;;;5111039;27;20389;-83
2021/12/19 09:15:55;;;;;;;0.57;0.47;;;24.10;77.80;;;;;;5110777;27;20433;-82
2021/12/19 09:18:22;;;;;;;1.77;0.60;;;24.10;77.20;;;;;;5129047;27;20373;-83
2021/12/19 09:20:50;;;;;;;0.73;0.50;;;24.10;78.00;;;;;;5128873;27;20458;-83
2021/12/19 09:23:18;;;;;;;0.70;0.60;;;24.10;79.10;;;;;;5129259;27;20383;-82
2021/12/19 09:25:46;;;;;;;1.20;0.60;;;24.00;79.30;;;;;;5129235;27;20459;-82
2021/12/19 09:28:13;;;;;;;1.60;0.60;;;23.90;79.60;;;;;;5129554;27;20483;-82
2021/12/19 09:30:41;;;;;;;1.83;0.70;;;23.90;80.30;;;;;;5129098;27;20380;-82
2021/12/19 09:33:08;;;;;;;1.10;0.55;;;23.90;80.90;;;;;;5128711;27;20960;-79
2021/12/19 09:35:36;;;;;;;1.60;0.70;;;23.80;81.20;;;;;;5106802;27;20409;-79
2021/12/19 09:38:04;;;;;;;0.50;0.43;;;23.80;82.10;;;;;;5128205;27;20392;-83
2021/12/19 09:40:35;;;;;;;1.40;0.60;;;23.70;81.60;;;;;;5128191;27;20377;-81
2021/12/19 09:43:31;;;;;;;0.68;0.52;;;23.70;83.50;;;;;;5128181;27;20385;-85
2021/12/19 09:46:02;;;;;;;1.23;0.43;;;23.60;83.30;;;;;;5122101;27;20441;-84
2021/12/19 09:48:29;;;;;;;1.77;0.50;;;23.60;84.00;;;;;;5129103;27;20369;-83
2021/12/19 09:50:56;;;;;;;1.20;0.43;;;23.50;85.00;;;;;;5128169;27;20891;-82
2021/12/19 09:53:23;;;;;;;1.20;0.50;;;23.40;84.90;;;;;;5127954;27;20401;-82
2021/12/19 09:55:50;;;;;;;0.65;0.50;;;23.40;85.50;;;;;;5128294;27;20452;-82
2021/12/19 09:58:17;;;;;;;1.48;0.40;;;23.30;85.80;;;;;;5127763;27;20388;-83
2021/12/19 10:00:44;;;;;;;0.70;0.45;;;23.30;86.00;;;;;;5127606;27;20437;-81
2021/12/19 10:03:12;;;;;;;0.70;0.55;;;23.30;87.20;;;;;;5127443;27;20381;-82
2021/12/19 10:05:39;;;;;;;0.98;0.60;;;23.30;85.70;;;;;;5127472;27;20369;-82
2021/12/19 10:08:06;;;;;;;1.52;0.50;;;23.30;86.80;;;;;;5109210;27;20397;-82
2021/12/19 10:10:52;;;;;;;0.80;0.50;;;23.30;87.00;;;;;;5128455;27;20709;-82
2021/12/19 10:13:33;;;;;;;1.00;0.60;;;23.30;86.70;;;;;;5128132;27;20877;-81
2021/12/19 10:16:01;;;;;;;1.38;0.70;;;23.30;87.00;;;;;;5127308;27;20385;-81
2021/12/19 10:18:28;;;;;;;1.37;0.60;;;23.30;87.20;;;;;;5127829;27;20381;-82
2021/12/19 10:21:00;;;;;;;1.08;0.50;;;23.30;87.50;;;;;;5127382;27;20438;-82
2021/12/19 10:23:31;;;;;;;0.70;0.55;;;23.30;88.00;;;;;;5125639;27;20389;-84
2021/12/19 10:26:01;;;;;;;0.70;0.52;;;23.20;88.10;;;;;;5126754;27;20377;-80
2021/12/19 10:28:29;;;;;;;1.38;0.55;;;23.10;88.60;;;;;;5126432;27;20733;-83
2021/12/19 10:30:59;;;;;;;1.10;0.60;;;23.20;89.30;;;;;;5126300;27;20767;-83
2021/12/19 10:33:31;;;;;;;1.05;0.70;;;23.20;89.30;;;;;;5126834;27;20397;-83
2021/12/19 10:36:01;;;;;;;1.80;0.70;;;23.20;90.00;;;;;;5126901;27;20394;-82
2021/12/19 10:38:36;;;;;;;1.00;0.75;;;23.20;90.40;;;;;;5126395;27;20392;-82
2021/12/19 10:41:06;;;;;;;1.48;0.90;;;23.30;90.40;;;;;;5126158;27;20380;-82
2021/12/19 10:43:41;;;;;;;1.17;0.93;;;23.30;90.50;;;;;;5126573;27;20449;-83
2021/12/19 10:46:08;;;;;;;1.10;0.68;;;23.20;90.50;;;;;;5126871;27;20402;-82
2021/12/19 10:48:39;;;;;;;1.73;0.67;;;23.30;90.60;;;;;;5127573;27;20377;-82
2021/12/19 10:51:07;;;;;;;0.85;0.80;;;23.20;90.80;;;;;;5127077;27;20377;-83
2021/12/19 10:53:36;;;;;;;0.88;0.80;;;23.10;91.30;;;;;;5126399;27;20429;-84
2021/12/19 10:56:24;;;;;;;2.05;0.80;;;23.10;91.30;;;;;;5127419;27;20426;-82
2021/12/19 10:58:55;;;;;;;2.58;0.70;;;23.00;91.60;;;;;;5125633;27;20441;-83
2021/12/19 11:01:29;;;;;;;1.77;0.70;;;23.00;92.30;;;;;;5126956;27;20755;-83
2021/12/19 11:03:57;;;;;;;1.00;0.80;;;23.10;92.60;;;;;;5126193;27;20935;-81
2021/12/19 11:06:32;;;;;;;1.00;0.80;;;22.90;93.20;;;;;;5126795;28;20710;-84
2021/12/19 11:09:01;;;;;;;0.90;0.80;;;23.00;93.10;;;;;;5127661;27;20414;-83
2021/12/19 11:11:42;;;;;;;1.65;0.70;;;22.90;93.00;;;;;;5126094;28;20888;-83
2021/12/19 11:14:13;;;;;;;2.78;0.80;;;22.90;93.10;;;;;;5127253;28;20393;-83
2021/12/19 11:16:41;;;;;;;2.50;0.70;;;22.90;93.50;;;;;;5126825;27;20368;-82
2021/12/19 11:19:09;;;;;;;2.00;0.60;;;22.80;93.80;;;;;;5127391;28;20385;-83
2021/12/19 11:21:37;;;;;;;1.30;0.70;;;22.80;94.00;;;;;;5126770;27;20889;-83
2021/12/19 11:24:15;;;;;;;1.83;0.90;;;22.80;94.10;;;;;;5107479;28;20757;-83
2021/12/19 11:26:44;;;;;;;2.40;1.00;;;22.70;94.40;;;;;;5126967;28;20404;-82
2021/12/19 11:29:13;;;;;;;1.30;0.80;;;22.70;94.70;;;;;;5127185;27;20406;-81
2021/12/19 11:31:45;;;;;;;1.77;0.73;;;22.60;94.80;;;;;;5125202;27;20473;-83
2021/12/19 11:34:18;;;;;;;2.50;0.90;;;22.60;95.00;;;;;;5127326;28;20511;-82
2021/12/19 11:36:59;;;;;;;1.87;1.00;;;22.60;95.40;;;;;;5126069;27;20392;-81
2021/12/19 11:39:30;;;;;;;1.58;0.90;;;22.60;95.40;;;;;;5125680;27;20380;-80
2021/12/19 11:42:08;;;;;;;1.17;0.90;;;22.50;95.60;;;;;;5127341;27;20369;-81
2021/12/19 11:44:48;;;;;;;7.35;5.70;;;22.50;96.40;;;;;;5127030;27;20372;-82
2021/12/19 11:47:44;;;;;;;1.55;1.10;;;22.40;97.00;;;;;;5127181;28;20434;-81
2021/12/19 11:50:20;;;;;;;0.73;0.70;;;22.40;96.90;;;;;;5127353;28;20999;-85
2021/12/19 11:52:49;;;;;;;1.33;0.60;;;22.40;97.10;;;;;;5127014;28;21208;-81
2021/12/19 11:55:16;;;;;;;4.43;0.85;;;22.30;97.40;;;;;;5127289;27;20468;-81
2021/12/19 11:58:03;;;;;;;2.20;1.08;;;22.30;97.80;;;;;;5127026;27;21218;-75
2021/12/19 12:00:33;;;;;;;0.93;0.83;;;22.20;98.00;;;;;;5116592;27;20373;-80
2021/12/19 12:03:13;;;;;;;1.17;0.88;;;22.30;98.10;;;;;;5130771;27;20388;-84
2021/12/19 12:05:41;;;;;;;1.73;1.00;;;22.30;98.30;;;;;;5131107;27;20446;-83
2021/12/19 12:08:08;;;;;;;2.20;0.90;;;22.20;98.30;;;;;;5125391;27;20863;-79
2021/12/19 12:10:59;;;;;;;2.95;1.20;;;22.20;98.60;;;;;;5125520;27;20373;-82
2021/12/19 12:13:38;;;;;;;1.23;0.95;;;22.10;98.90;;;;;;5107320;27;20757;-79
2021/12/19 12:16:20;;;;;;;1.40;0.90;;;22.10;99.20;;;;;;5127194;27;20369;-79
2021/12/19 12:18:58;;;;;;;2.10;0.90;;;22.20;99.50;;;;;;5133457;27;20451;-82
2021/12/19 12:24:07;;;;;;;2.00;1.10;;;22.10;99.70;;;;;;5150831;27;20355;-82
2021/12/19 12:26:51;;;;;;;1.65;1.08;;;22.10;99.90;;;;;;5151016;27;20367;-78
2021/12/19 12:29:18;;;;;;;3.15;1.00;;;22.10;99.90;;;;;;5151403;27;20367;-80
2021/12/19 12:31:47;;;;;;;2.03;1.00;;;22.00;99.90;;;;;;5135751;27;20389;-81
2021/12/19 12:34:17;;;;;;;2.13;1.10;;;22.00;99.90;;;;;;5125429;27;20447;-82
2021/12/19 12:36:46;;;;;;;3.13;1.00;;;22.00;99.90;;;;;;5127746;27;20385;-83
2021/12/19 12:39:38;;;;;;;1.48;1.00;;;22.00;99.90;;;;;;5128980;27;20877;-83
2021/12/19 12:42:10;;;;;;;3.13;1.30;;;22.00;99.90;;;;;;5128412;27;20384;-83
2021/12/19 12:44:39;;;;;;;3.58;0.88;;;22.00;99.90;;;;;;5129655;27;20384;-82
2021/12/19 12:47:07;;;;;;;3.08;1.27;;;21.90;99.90;;;;;;5129808;27;20390;-82
2021/12/19 12:49:34;;;;;;;3.15;1.00;;;21.90;99.90;;;;;;5129960;27;20381;-83
2021/12/19 12:52:06;;;;;;;3.30;0.80;;;21.80;99.90;;;;;;5129678;27;20380;-83
2021/12/19 12:54:37;;;;;;;2.20;0.80;;;21.90;99.90;;;;;;5129825;27;20397;-83
2021/12/19 12:57:08;;;;;;;1.17;0.83;;;21.90;99.90;;;;;;5130017;27;20413;-83
2021/12/19 12:59:39;;;;;;;2.55;0.93;;;21.90;99.90;;;;;;5129662;27;20417;-81
2021/12/19 13:02:28;;;;;;;1.55;0.70;;;21.90;99.90;;;;;;5129304;27;20826;-82
2021/12/19 13:04:59;;;;;;;2.00;0.90;;;21.90;99.90;;;;;;5129484;27;20483;-83
2021/12/19 13:07:27;;;;;;;3.77;0.80;;;21.80;99.90;;;;;;5129437;27;20769;-82
2021/12/19 13:10:02;;;;;;;2.72;0.90;;;21.80;99.90;;;;;;5128244;27;20428;-82
2021/12/19 13:12:31;;;;;;;2.07;0.63;;;21.80;99.90;;;;;;5129327;27;20385;-83
2021/12/19 13:15:01;;;;;;;1.00;0.80;;;21.80;99.90;;;;;;5129165;27;20396;-83
2021/12/19 13:17:39;;;;;;;1.08;0.80;;;21.80;99.90;;;;;;5129177;27;20915;-83
2021/12/19 13:20:16;;;;;;;1.50;0.90;;;21.80;99.90;;;;;;5129842;27;20372;-83
2021/12/19 13:22:46;;;;;;;2.58;0.80;;;21.80;99.90;;;;;;5129425;27;20369;-82
2021/12/19 13:25:19;;;;;;;1.63;0.70;;;21.70;99.90;;;;;;5130015;27;20412;-81
2021/12/19 13:27:53;;;;;;;0.98;0.77;;;21.70;99.90;;;;;;5129198;27;20404;-81
2021/12/19 13:30:24;;;;;;;2.83;0.80;;;21.60;99.90;;;;;;5111534;27;20411;-83
2021/12/19 13:32:54;;;;;;;1.23;0.73;;;21.60;99.90;;;;;;5129313;27;20487;-81
2021/12/19 13:35:32;;;;;;;2.08;1.00;;;21.60;99.90;;;;;;5129266;27;20460;-81
2021/12/19 13:38:03;;;;;;;2.07;1.00;;;21.60;99.90;;;;;;5128759;27;20373;-82
2021/12/19 13:40:51;;;;;;;2.30;1.10;;;21.60;99.90;;;;;;5128456;27;20467;-83
2021/12/19 13:43:17;;;;;;;1.98;0.70;;;21.50;99.90;;;;;;5128904;27;20504;-82
2021/12/19 13:45:56;;;;;;;2.42;0.90;;;21.50;99.90;;;;;;5128893;27;20464;-82
2021/12/19 13:48:31;;;;;;;1.55;0.95;;;21.50;99.90;;;;;;5128806;27;20392;-82
2021/12/19 13:51:04;;;;;;;1.60;1.00;;;21.40;99.90;;;;;;5128700;27;20393;-82
2021/12/19 13:53:34;;;;;;;1.67;0.85;;;21.40;99.90;;;;;;5128522;27;20738;-82
2021/12/19 13:56:10;;;;;;;2.37;1.00;;;21.40;99.90;;;;;;5128540;27;20434;-82
2021/12/19 13:58:41;;;;;;;2.67;0.80;;;21.30;99.90;;;;;;5128430;27;20446;-83
2021/12/19 14:01:19;;;;;;;2.03;0.70;;;21.30;99.90;;;;;;5128478;27;20390;-82
2021/12/19 14:03:47;;;;;;;1.30;0.93;;;21.20;99.90;;;;;;5128359;27;20382;-82
2021/12/19 14:06:20;;;;;;;3.97;0.90;;;21.10;99.90;;;;;;5128168;27;20389;-83
2021/12/19 14:09:12;;;;;;;1.77;0.88;;;21.10;99.90;;;;;;5128263;27;20369;-82
2021/12/19 14:11:42;;;;;;;2.03;0.90;;;21.20;99.90;;;;;;5113158;27;20888;-82